createdAt,value
2019-05-17T00:00:08.700Z,60.92
2019-05-17T00:02:41.790Z,61.36
2019-05-17T00:05:11.107Z,61.64
2019-05-17T00:07:40.334Z,61.12
2019-05-17T00:10:17.359Z,61.50
2019-05-17T00:12:46.911Z,61.11
2019-05-17T00:15:17.277Z,60.38
2019-05-17T00:17:47.043Z,60.06
2019-05-17T00:20:17.913Z,60.01
2019-05-17T00:22:47.383Z,59.92
2019-05-17T00:25:17.300Z,59.88
2019-05-17T00:27:47.346Z,59.79
2019-05-17T00:30:17.577Z,59.27
2019-05-17T00:32:47.754Z,59.44
2019-05-17T00:35:17.827Z,59.39
2019-05-17T00:37:47.201Z,59.34
2019-05-17T00:40:16.887Z,58.93
2019-05-17T00:42:52.613Z,59.25
2019-05-17T00:45:21.812Z,59.04
2019-05-17T00:47:51.994Z,59.32
2019-05-17T00:50:21.780Z,59.10
2019-05-17T00:52:50.248Z,59.17
2019-05-17T00:55:19.342Z,58.70
2019-05-17T00:57:53.310Z,59.02
2019-05-17T01:00:22.524Z,59.45
2019-05-17T01:02:51.679Z,59.77
2019-05-17T01:05:21.808Z,60.04
2019-05-17T01:07:50.966Z,59.90
2019-05-17T01:10:20.301Z,59.81
2019-05-17T01:12:49.577Z,59.13
2019-05-17T01:15:19.276Z,59.26
2019-05-17T01:17:47.729Z,59.02
2019-05-17T01:20:21.359Z,58.64
2019-05-17T01:22:56.681Z,59.62
2019-05-17T01:25:27.243Z,59.78
2019-05-17T01:27:56.605Z,60.08
2019-05-17T01:30:26.636Z,59.98
2019-05-17T01:32:57.024Z,59.68
2019-05-17T01:35:26.791Z,59.86
2019-05-17T01:37:57.926Z,59.93
2019-05-17T01:40:31.204Z,59.97
2019-05-17T01:43:00.367Z,59.80
2019-05-17T01:45:29.591Z,60.01
2019-05-17T01:47:58.762Z,60.19
2019-05-17T01:50:28.362Z,60.62
2019-05-17T01:52:57.569Z,60.61
2019-05-17T01:55:26.756Z,60.58
2019-05-17T01:57:56.467Z,60.34
2019-05-17T02:00:26.582Z,60.34
2019-05-17T02:02:57.718Z,59.74
2019-05-17T02:05:27.486Z,60.24
2019-05-17T02:07:56.978Z,60.48
2019-05-17T02:10:27.148Z,60.27
2019-05-17T02:12:59.671Z,60.05
2019-05-17T02:15:33.933Z,60.00
2019-05-17T02:18:03.420Z,60.03
2019-05-17T02:20:32.571Z,60.07
2019-05-17T02:23:07.564Z,60.31
2019-05-17T02:25:37.177Z,60.38
2019-05-17T02:28:07.370Z,60.20
2019-05-17T02:30:36.653Z,59.91
2019-05-17T02:33:06.183Z,59.77
2019-05-17T02:35:43.074Z,59.43
2019-05-17T02:38:22.449Z,59.88
2019-05-17T02:40:58.908Z,59.47
2019-05-17T02:43:35.163Z,59.32
2019-05-17T02:46:13.823Z,59.58
2019-05-17T02:48:48.076Z,59.37
2019-05-17T02:51:17.265Z,59.81
2019-05-17T02:53:46.433Z,59.58
2019-05-17T02:56:15.588Z,59.45
2019-05-17T02:58:44.812Z,59.82
2019-05-17T03:01:14.084Z,59.99
2019-05-17T03:03:43.830Z,59.48
2019-05-17T03:06:13.748Z,59.17
2019-05-17T03:08:42.934Z,59.00
2019-05-17T03:11:13.504Z,58.39
2019-05-17T03:13:43.578Z,58.71
2019-05-17T03:16:14.748Z,58.57
2019-05-17T03:18:44.691Z,58.80
2019-05-17T03:21:15.298Z,59.07
2019-05-17T03:23:44.821Z,59.47
2019-05-17T03:26:15.030Z,59.48
2019-05-17T03:28:44.234Z,59.69
2019-05-17T03:31:16.828Z,59.93
2019-05-17T03:33:46.181Z,60.17
2019-05-17T03:36:17.213Z,60.27
2019-05-17T03:38:46.552Z,60.24
2019-05-17T03:41:23.462Z,60.39
2019-05-17T03:43:46.789Z,60.49
2019-05-17T03:46:16.081Z,60.38
2019-05-17T03:48:45.256Z,60.58
2019-05-17T03:51:14.451Z,60.81
2019-05-17T03:53:44.363Z,60.41
2019-05-17T03:56:13.698Z,60.73
2019-05-17T03:58:43.529Z,60.93
2019-05-17T04:01:14.123Z,60.80
2019-05-17T04:03:43.680Z,60.27
2019-05-17T04:06:14.983Z,60.00
2019-05-17T04:08:44.199Z,59.87
2019-05-17T04:11:25.819Z,60.38
2019-05-17T04:13:45.071Z,60.36
2019-05-17T04:16:14.440Z,60.56
2019-05-17T04:18:43.959Z,60.70
2019-05-17T04:21:14.202Z,60.57
2019-05-17T04:23:43.536Z,61.02
2019-05-17T04:26:16.012Z,61.07
2019-05-17T04:28:47.116Z,61.13
2019-05-17T04:31:17.493Z,61.06
2019-05-17T04:33:46.777Z,61.15
2019-05-17T04:36:16.122Z,61.22
2019-05-17T04:38:52.405Z,61.37
2019-05-17T04:41:41.326Z,61.38
2019-05-17T04:43:58.774Z,61.27
2019-05-17T04:47:02.762Z,61.23
2019-05-17T04:49:33.103Z,61.65
2019-05-17T04:52:03.601Z,61.12
2019-05-17T04:55:03.921Z,61.17
2019-05-17T04:57:54.899Z,61.13
2019-05-17T05:00:21.929Z,61.91
2019-05-17T05:02:52.753Z,61.81
2019-05-17T05:05:22.960Z,61.49
2019-05-17T05:07:53.544Z,61.68
2019-05-17T05:10:22.868Z,61.80
2019-05-17T05:12:52.585Z,61.89
2019-05-17T05:15:22.932Z,62.10
2019-05-17T05:20:53.890Z,62.17
2019-05-17T05:23:24.123Z,62.13
2019-05-17T05:25:58.786Z,62.23
2019-05-17T05:28:32.791Z,62.30
2019-05-17T05:31:04.061Z,62.58
2019-05-17T05:33:33.500Z,62.61
2019-05-17T05:36:04.181Z,62.59
2019-05-17T05:38:33.475Z,62.62
2019-05-17T05:41:02.632Z,62.74
2019-05-17T05:43:32.828Z,62.88
2019-05-17T05:46:02.825Z,62.44
2019-05-17T05:48:32.785Z,62.32
2019-05-17T05:51:04.129Z,62.68
2019-05-17T05:53:33.270Z,62.38
2019-05-17T05:56:21.825Z,62.30
2019-05-17T05:59:02.906Z,62.63
2019-05-17T06:01:32.726Z,62.65
2019-05-17T06:04:02.782Z,62.73
2019-05-17T06:06:41.497Z,62.38
2019-05-17T06:09:51.599Z,62.75
2019-05-17T06:15:32.081Z,62.31
2019-05-17T06:18:24.624Z,62.29
2019-05-17T06:21:34.359Z,62.48
2019-05-17T06:24:11.934Z,62.34
2019-05-17T06:26:42.254Z,62.34
2019-05-17T06:29:11.903Z,62.34
2019-05-17T06:31:43.045Z,62.65
2019-05-17T06:34:11.752Z,62.34
2019-05-17T06:36:42.305Z,62.59
2019-05-17T06:39:11.882Z,62.61
2019-05-17T06:41:58.234Z,62.42
2019-05-17T06:44:22.255Z,62.63
2019-05-17T06:46:51.935Z,62.69
2019-05-17T06:49:22.457Z,62.41
2019-05-17T06:51:51.674Z,61.84
2019-05-17T06:54:21.624Z,62.30
2019-05-17T06:56:52.560Z,62.37
2019-05-17T06:59:21.879Z,62.53
2019-05-17T07:01:57.227Z,62.40
2019-05-17T07:04:26.447Z,62.11
2019-05-17T07:07:11.799Z,62.40
2019-05-17T07:09:41.058Z,62.41
2019-05-17T07:12:15.504Z,62.38
2019-05-17T07:14:50.682Z,62.63
2019-05-17T07:17:21.657Z,62.77
2019-05-17T07:19:50.904Z,62.79
2019-05-17T07:22:21.227Z,62.95
2019-05-17T07:24:50.621Z,62.98
2019-05-17T07:27:20.631Z,63.00
2019-05-17T07:29:49.881Z,62.90
2019-05-17T07:32:19.465Z,62.86
2019-05-17T07:34:50.766Z,62.85
2019-05-17T07:37:23.855Z,62.71
2019-05-17T07:40:01.057Z,62.68
2019-05-17T07:42:24.678Z,62.78
2019-05-17T07:44:53.851Z,62.98
2019-05-17T07:47:23.063Z,62.76
2019-05-17T07:49:54.597Z,63.06
2019-05-17T07:52:23.285Z,62.82
2019-05-17T07:55:02.452Z,62.90
2019-05-17T07:57:36.386Z,62.56
2019-05-17T08:00:10.318Z,62.45
2019-05-17T08:02:40.344Z,62.63
2019-05-17T08:05:10.657Z,62.63
2019-05-17T08:07:40.809Z,62.77
2019-05-17T08:10:15.302Z,62.95
2019-05-17T08:12:44.779Z,63.15
2019-05-17T08:15:14.181Z,62.89
2019-05-17T08:17:53.906Z,63.06
2019-05-17T08:20:30.008Z,63.07
2019-05-17T08:23:05.042Z,62.88
2019-05-17T08:25:49.628Z,62.92
2019-05-17T08:28:10.670Z,62.82
2019-05-17T08:33:37.020Z,62.71
2019-05-17T08:36:06.487Z,62.74
2019-05-17T08:38:35.806Z,62.56
2019-05-17T08:41:12.513Z,62.38
2019-05-17T08:43:46.581Z,62.37
2019-05-17T08:46:19.914Z,62.28
2019-05-17T08:48:51.501Z,62.37
2019-05-17T08:52:12.026Z,62.19
2019-05-17T08:54:22.635Z,62.13
2019-05-17T08:56:52.441Z,61.92
2019-05-17T08:59:21.707Z,62.02
2019-05-17T09:01:50.876Z,61.75
2019-05-17T09:04:21.059Z,61.48
2019-05-17T09:06:50.686Z,61.25
2019-05-17T09:09:20.900Z,61.23
2019-05-17T09:11:56.423Z,61.03
2019-05-17T09:14:25.923Z,61.06
2019-05-17T09:17:01.884Z,61.08
2019-05-17T09:19:31.560Z,61.00
2019-05-17T09:22:02.052Z,60.16
2019-05-17T09:24:35.381Z,60.15
2019-05-17T09:27:13.181Z,59.91
2019-05-17T09:29:44.502Z,59.54
2019-05-17T09:32:13.744Z,59.78
2019-05-17T09:34:42.947Z,60.30
2019-05-17T09:37:19.858Z,60.46
2019-05-17T09:39:52.417Z,60.67
2019-05-17T09:42:21.846Z,60.96
2019-05-17T09:44:51.036Z,60.94
2019-05-17T09:47:20.774Z,60.94
2019-05-17T09:49:50.304Z,60.98
2019-05-17T09:52:23.398Z,60.89
2019-05-17T09:55:00.234Z,61.08
2019-05-17T09:57:32.866Z,60.88
2019-05-17T10:00:12.107Z,60.88
2019-05-17T10:02:50.549Z,60.74
2019-05-17T10:05:20.221Z,60.45
2019-05-17T10:08:02.765Z,60.33
2019-05-17T10:10:40.202Z,60.16
2019-05-17T10:13:15.083Z,60.11
2019-05-17T10:15:44.749Z,59.91
2019-05-17T10:18:14.387Z,59.72
2019-05-17T10:20:42.830Z,59.85
2019-05-17T10:23:12.204Z,59.87
2019-05-17T10:25:44.877Z,59.48
2019-05-17T10:28:14.074Z,58.83
2019-05-17T10:30:43.372Z,58.89
2019-05-17T10:33:12.594Z,58.95
2019-05-17T10:35:42.212Z,59.11
2019-05-17T10:38:12.443Z,59.44
2019-05-17T10:40:54.324Z,59.68
2019-05-17T10:43:25.354Z,59.95
2019-05-17T10:45:56.904Z,60.05
2019-05-17T10:48:27.143Z,60.00
2019-05-17T10:51:00.291Z,59.66
2019-05-17T10:53:35.246Z,59.43
2019-05-17T10:56:04.620Z,58.93
2019-05-17T10:58:36.542Z,58.83
2019-05-17T11:01:05.775Z,58.64
2019-05-17T11:03:39.762Z,58.62
2019-05-17T11:06:10.914Z,58.80
2019-05-17T11:08:43.280Z,58.80
2019-05-17T11:11:12.711Z,58.70
2019-05-17T11:13:43.488Z,58.79
2019-05-17T11:16:12.817Z,58.67
2019-05-17T11:18:42.847Z,58.52
2019-05-17T11:21:12.583Z,58.36
2019-05-17T11:23:44.058Z,57.90
2019-05-17T11:26:16.373Z,57.48
2019-05-17T11:28:48.501Z,57.64
2019-05-17T11:31:17.979Z,57.59
2019-05-17T11:33:47.819Z,57.29
2019-05-17T11:36:17.896Z,57.20
2019-05-17T11:38:48.366Z,56.74
2019-05-17T11:41:21.462Z,56.44
2019-05-17T11:43:49.700Z,56.26
2019-05-17T11:46:19.407Z,56.34
2019-05-17T11:48:48.923Z,56.48
2019-05-17T11:51:18.539Z,56.65
2019-05-17T11:53:50.859Z,56.49
2019-05-17T11:56:20.103Z,56.61
2019-05-17T11:58:49.251Z,56.63
2019-05-17T12:01:19.794Z,56.37
2019-05-17T12:03:49.273Z,56.15
2019-05-17T12:06:19.751Z,55.93
2019-05-17T12:08:48.900Z,56.18
2019-05-17T12:11:18.473Z,55.72
2019-05-17T12:13:47.945Z,55.68
2019-05-17T12:16:20.525Z,55.74
2019-05-17T12:18:49.765Z,55.95
2019-05-17T12:21:19.491Z,56.26
2019-05-17T12:23:48.917Z,56.46
2019-05-17T12:26:18.249Z,56.17
2019-05-17T12:28:48.500Z,56.25
2019-05-17T12:31:17.761Z,56.27
2019-05-17T12:33:46.958Z,56.21
2019-05-17T12:36:16.132Z,56.35
2019-05-17T12:38:45.525Z,56.23
2019-05-17T12:41:14.839Z,56.11
2019-05-17T12:43:43.991Z,55.83
2019-05-17T12:46:13.193Z,55.77
2019-05-17T12:48:44.988Z,55.69
2019-05-17T12:51:14.213Z,55.77
2019-05-17T12:53:43.483Z,55.74
2019-05-17T12:56:14.632Z,55.94
2019-05-17T12:58:43.985Z,55.87
2019-05-17T13:01:13.203Z,55.96
2019-05-17T13:03:42.406Z,55.87
2019-05-17T13:06:11.709Z,56.10
2019-05-17T13:08:40.938Z,56.21
2019-05-17T13:11:10.264Z,56.33
2019-05-17T13:13:39.464Z,56.41
2019-05-17T13:16:17.484Z,56.50
2019-05-17T13:18:41.464Z,56.56
2019-05-17T13:21:10.784Z,56.62
2019-05-17T13:23:40.629Z,56.52
2019-05-17T13:26:09.881Z,56.71
2019-05-17T13:28:39.038Z,56.75
2019-05-17T13:31:09.878Z,56.76
2019-05-17T13:33:39.103Z,56.65
2019-05-17T13:36:08.367Z,56.57
2019-05-17T13:38:37.595Z,56.61
2019-05-17T13:41:06.864Z,56.60
2019-05-17T13:43:36.141Z,56.63
2019-05-17T13:46:05.730Z,56.84
2019-05-17T13:48:34.369Z,56.91
2019-05-17T13:51:13.710Z,57.05
2019-05-17T13:53:43.078Z,56.97
2019-05-17T13:56:12.208Z,57.06
2019-05-17T13:58:44.570Z,57.11
2019-05-17T14:01:13.893Z,57.11
2019-05-17T14:03:43.052Z,57.16
2019-05-17T14:06:14.719Z,57.25
2019-05-17T14:08:43.924Z,57.25
2019-05-17T14:11:13.486Z,57.25
2019-05-17T14:13:44.491Z,57.38
2019-05-17T14:16:13.773Z,57.34
2019-05-17T14:18:46.559Z,57.49
2019-05-17T14:21:20.132Z,57.38
2019-05-17T14:23:49.863Z,57.46
2019-05-17T14:26:18.440Z,57.49
2019-05-17T14:28:52.196Z,57.69
2019-05-17T14:31:21.629Z,57.65
2019-05-17T14:33:51.929Z,57.56
2019-05-17T14:36:21.216Z,57.69
2019-05-17T14:38:50.380Z,57.80
2019-05-17T14:41:19.726Z,57.78
2019-05-17T14:43:48.951Z,57.85
2019-05-17T14:46:18.222Z,57.79
2019-05-17T14:48:47.506Z,57.80
2019-05-17T14:51:16.649Z,57.67
2019-05-17T14:53:46.539Z,57.63
2019-05-17T14:56:15.879Z,57.67
2019-05-17T14:58:45.131Z,57.62
2019-05-17T15:01:14.359Z,57.68
2019-05-17T15:03:44.558Z,57.76
2019-05-17T15:06:19.510Z,57.81
2019-05-17T15:08:48.954Z,57.89
2019-05-17T15:11:18.190Z,57.89
2019-05-17T15:13:49.279Z,57.91
2019-05-17T15:16:18.549Z,57.95
2019-05-17T15:18:47.717Z,57.99
2019-05-17T15:21:16.998Z,58.06
2019-05-17T15:23:46.170Z,58.11
2019-05-17T15:26:15.441Z,58.10
2019-05-17T15:28:44.680Z,58.11
2019-05-17T15:31:14.149Z,58.13
2019-05-17T15:33:43.284Z,58.28
2019-05-17T15:36:12.479Z,58.30
2019-05-17T15:38:41.655Z,58.41
2019-05-17T15:41:13.276Z,58.43
2019-05-17T15:43:42.632Z,58.43
2019-05-17T15:46:11.819Z,58.49
2019-05-17T15:48:41.041Z,58.35
2019-05-17T15:51:10.473Z,58.31
2019-05-17T15:53:40.191Z,58.50
2019-05-17T15:56:08.737Z,58.40
2019-05-17T15:58:38.185Z,58.43
2019-05-17T16:01:10.949Z,58.39
2019-05-17T16:03:40.446Z,58.46
2019-05-17T16:06:09.833Z,58.51
2019-05-17T16:08:39.134Z,58.62
2019-05-17T16:11:08.415Z,58.68
2019-05-17T16:13:37.620Z,58.71
2019-05-17T16:16:07.171Z,58.58
2019-05-17T16:18:37.249Z,58.75
2019-05-17T16:21:06.434Z,58.89
2019-05-17T16:23:35.622Z,58.94
2019-05-17T16:26:05.179Z,59.17
2019-05-17T16:28:34.365Z,59.36
2019-05-17T16:31:03.599Z,59.60
2019-05-17T16:33:33.045Z,59.94
2019-05-17T16:36:02.242Z,60.01
2019-05-17T16:38:31.468Z,60.50
2019-05-17T16:41:00.713Z,60.55
2019-05-17T16:43:29.982Z,60.62
2019-05-17T16:45:59.208Z,60.71
2019-05-17T16:48:28.513Z,60.95
2019-05-17T16:50:57.718Z,61.31
2019-05-17T16:53:26.897Z,61.20
2019-05-17T16:55:56.092Z,61.26
2019-05-17T16:58:25.654Z,61.49
2019-05-17T17:00:54.967Z,61.75
2019-05-17T17:03:24.145Z,61.72
2019-05-17T17:05:53.324Z,61.87
2019-05-17T17:08:22.583Z,62.02
2019-05-17T17:10:51.752Z,61.72
2019-05-17T17:13:32.395Z,61.83
2019-05-17T17:15:51.965Z,61.67
2019-05-17T17:18:21.305Z,61.41
2019-05-17T17:20:50.569Z,61.26
2019-05-17T17:23:19.772Z,61.36
2019-05-17T17:25:56.697Z,61.47
2019-05-17T17:28:27.547Z,61.29
2019-05-17T17:30:56.769Z,61.43
2019-05-17T17:33:39.741Z,61.60
2019-05-17T17:36:09.074Z,61.61
2019-05-17T17:38:38.177Z,61.32
2019-05-17T17:41:07.416Z,61.49
2019-05-17T17:43:36.803Z,61.51
2019-05-17T17:46:06.271Z,61.41
2019-05-17T17:48:36.730Z,61.31
2019-05-17T17:51:06.115Z,61.36
2019-05-17T17:53:35.306Z,61.20
2019-05-17T17:56:04.519Z,61.11
2019-05-17T17:58:33.777Z,61.03
2019-05-17T18:01:03.119Z,60.86
2019-05-17T18:03:32.500Z,60.92
2019-05-17T18:06:01.966Z,60.95
2019-05-17T18:08:34.648Z,61.04
2019-05-17T18:11:02.974Z,60.82
2019-05-17T18:13:32.145Z,60.88
2019-05-17T18:16:03.026Z,60.90
2019-05-17T18:18:32.228Z,60.81
2019-05-17T18:21:01.427Z,60.71
2019-05-17T18:23:30.581Z,60.93
2019-05-17T18:26:00.047Z,60.98
2019-05-17T18:28:29.230Z,60.82
2019-05-17T18:30:58.387Z,60.96
2019-05-17T18:33:27.720Z,61.12
2019-05-17T18:35:56.914Z,60.87
2019-05-17T18:38:27.738Z,60.96
2019-05-17T18:40:56.937Z,61.22
2019-05-17T18:43:26.101Z,60.88
2019-05-17T18:45:55.407Z,60.71
2019-05-17T18:48:25.559Z,60.88
2019-05-17T18:50:54.785Z,60.66
2019-05-17T18:53:25.116Z,60.76
2019-05-17T18:55:54.346Z,60.68
2019-05-17T18:58:23.552Z,60.76
2019-05-17T19:00:52.785Z,60.95
2019-05-17T19:03:22.200Z,61.08
2019-05-17T19:05:51.360Z,61.22
2019-05-17T19:08:20.807Z,61.50
2019-05-17T19:10:50.192Z,61.37
2019-05-17T19:13:19.422Z,61.29
2019-05-17T19:15:48.596Z,61.35
2019-05-17T19:18:17.985Z,61.56
2019-05-17T19:20:47.269Z,61.37
2019-05-17T19:23:16.436Z,61.32
2019-05-17T19:25:45.609Z,61.35
2019-05-17T19:28:14.779Z,61.41
2019-05-17T19:30:43.929Z,61.34
2019-05-17T19:33:13.137Z,61.71
2019-05-17T19:35:43.108Z,61.64
2019-05-17T19:38:12.631Z,61.73
2019-05-17T19:40:41.889Z,61.66
2019-05-17T19:43:12.241Z,61.67
2019-05-17T19:45:41.431Z,61.75
2019-05-17T19:48:10.701Z,61.75
2019-05-17T19:50:43.070Z,61.61
2019-05-17T19:53:12.474Z,61.66
2019-05-17T19:55:42.440Z,61.88
2019-05-17T19:58:11.629Z,61.78
2019-05-17T20:00:41.024Z,61.77
2019-05-17T20:03:11.628Z,61.72
2019-05-17T20:05:41.026Z,61.57
2019-05-17T20:08:12.237Z,61.58
2019-05-17T20:10:41.677Z,61.53
2019-05-17T20:13:11.783Z,61.63
2019-05-17T20:15:41.205Z,61.65
2019-05-17T20:18:10.790Z,61.62
2019-05-17T20:20:40.074Z,61.54
2019-05-17T20:23:09.270Z,61.75
2019-05-17T20:25:40.060Z,61.94
2019-05-17T20:28:09.390Z,62.09
2019-05-17T20:30:40.935Z,61.97
2019-05-17T20:33:10.215Z,61.79
2019-05-17T20:35:43.518Z,61.91
2019-05-17T20:38:14.223Z,61.90
2019-05-17T20:40:44.411Z,61.69
2019-05-17T20:43:13.644Z,61.76
2019-05-17T20:45:42.878Z,61.96
2019-05-17T20:48:13.229Z,62.03
2019-05-17T20:50:43.509Z,61.87
2019-05-17T20:53:19.197Z,61.87
2019-05-17T20:55:48.095Z,62.04
2019-05-17T20:58:20.230Z,62.00
2019-05-17T21:00:49.589Z,62.07
2019-05-17T21:03:21.013Z,62.00
2019-05-17T21:05:50.435Z,62.07
2019-05-17T21:08:20.362Z,62.02
2019-05-17T21:10:50.593Z,61.99
2019-05-17T21:13:20.011Z,61.98
2019-05-17T21:15:49.523Z,62.15
2019-05-17T21:18:18.752Z,62.29
2019-05-17T21:20:49.572Z,62.25
2019-05-17T21:23:20.654Z,62.37
2019-05-17T21:25:50.131Z,62.48
2019-05-17T21:28:19.377Z,62.73
2019-05-17T21:30:49.661Z,62.59
2019-05-17T21:33:20.386Z,62.72
2019-05-17T21:35:50.016Z,62.82
2019-05-17T21:38:19.262Z,62.81
2019-05-17T21:40:48.457Z,62.77
2019-05-17T21:43:19.840Z,62.98
2019-05-17T21:46:03.335Z,63.18
2019-05-17T21:48:24.752Z,63.28
2019-05-17T21:50:54.677Z,63.27
2019-05-17T21:53:28.670Z,63.40
2019-05-17T21:55:58.419Z,63.38
2019-05-17T21:58:27.591Z,63.47
2019-05-17T22:01:11.541Z,63.81
2019-05-17T22:03:42.260Z,63.90
2019-05-17T22:06:12.748Z,64.16
2019-05-17T22:08:42.075Z,64.20
2019-05-17T22:11:16.285Z,64.38
2019-05-17T22:13:46.005Z,64.40
2019-05-17T22:16:19.556Z,64.75
2019-05-17T22:18:49.349Z,64.58
2019-05-17T22:21:20.528Z,65.10
2019-05-17T22:23:49.712Z,65.13
2019-05-17T22:26:27.761Z,65.28
2019-05-17T22:29:03.233Z,65.31
2019-05-17T22:31:32.686Z,65.19
2019-05-17T22:34:04.474Z,65.25
2019-05-17T22:36:35.344Z,65.49
2019-05-17T22:39:06.834Z,65.63
2019-05-17T22:41:39.292Z,65.46
2019-05-17T22:44:11.973Z,65.41
2019-05-17T22:46:42.308Z,65.43
2019-05-17T22:49:11.520Z,65.51
2019-05-17T22:51:44.346Z,65.75
2019-05-17T22:54:15.137Z,65.86
2019-05-17T22:56:47.752Z,65.92
2019-05-17T22:59:20.727Z,65.99
2019-05-17T23:01:52.936Z,66.23
2019-05-17T23:04:22.921Z,66.20
2019-05-17T23:06:55.787Z,66.25
2019-05-17T23:09:24.980Z,66.35
2019-05-17T23:11:59.953Z,66.43
2019-05-17T23:14:31.772Z,66.52
2019-05-17T23:17:02.858Z,66.55
2019-05-17T23:19:35.215Z,66.57
2019-05-17T23:22:06.961Z,66.61
2019-05-17T23:24:38.168Z,66.42
2019-05-17T23:27:10.082Z,66.52
2019-05-17T23:29:43.858Z,66.40
2019-05-17T23:32:14.160Z,66.35
2019-05-17T23:34:43.447Z,66.22
2019-05-17T23:37:20.047Z,66.05
2019-05-17T23:39:52.691Z,66.08
2019-05-17T23:42:26.807Z,66.14
2019-05-17T23:44:55.947Z,66.06
2019-05-17T23:47:30.431Z,65.99
2019-05-17T23:50:05.979Z,66.07
2019-05-17T23:52:40.843Z,66.09
2019-05-17T23:55:12.093Z,65.84
2019-05-17T23:57:41.616Z,65.99
